sensor_id;sensor_type;location;lat;lon;timestamp;temperature;humidity
31263;DHT22;17892;52.080;9.006;2023-12-04T00:00:47;0.40;99.90
31263;DHT22;17892;52.080;9.006;2023-12-04T00:03:13;0.40;99.90
31263;DHT22;17892;52.080;9.006;2023-12-04T00:05:38;0.40;99.90
31263;DHT22;17892;52.080;9.006;2023-12-04T00:08:07;0.40;99.90
31263;DHT22;17892;52.080;9.006;2023-12-04T00:10:33;0.40;99.90
31263;DHT22;17892;52.080;9.006;2023-12-04T00:12:59;0.30;99.90
31263;DHT22;17892;52.080;9.006;2023-12-04T00:15:24;0.40;99.90
31263;DHT22;17892;52.080;9.006;2023-12-04T00:17:50;0.30;99.90
31263;DHT22;17892;52.080;9.006;2023-12-04T00:20:16;0.30;99.90
31263;DHT22;17892;52.080;9.006;2023-12-04T00:22:41;0.30;99.90
31263;DHT22;17892;52.080;9.006;2023-12-04T00:25:07;0.30;99.90
31263;DHT22;17892;52.080;9.006;2023-12-04T00:27:33;0.30;99.90
31263;DHT22;17892;52.080;9.006;2023-12-04T00:29:59;0.30;99.90
31263;DHT22;17892;52.080;9.006;2023-12-04T00:32:24;0.30;99.90
31263;DHT22;17892;52.080;9.006;2023-12-04T00:34:50;0.30;99.90
31263;DHT22;17892;52.080;9.006;2023-12-04T00:37:16;0.30;99.90
31263;DHT22;17892;52.080;9.006;2023-12-04T00:39:41;0.30;99.90
31263;DHT22;17892;52.080;9.006;2023-12-04T00:42:07;0.30;99.90
31263;DHT22;17892;52.080;9.006;2023-12-04T00:44:33;0.30;99.90
31263;DHT22;17892;52.080;9.006;2023-12-04T00:46:59;0.30;99.90
31263;DHT22;17892;52.080;9.006;2023-12-04T00:49:24;0.30;99.90
31263;DHT22;17892;52.080;9.006;2023-12-04T00:51:50;0.30;99.90
31263;DHT22;17892;52.080;9.006;2023-12-04T00:54:16;0.30;99.90
31263;DHT22;17892;52.080;9.006;2023-12-04T00:56:41;0.30;99.90
31263;DHT22;17892;52.080;9.006;2023-12-04T00:59:08;0.30;99.90
31263;DHT22;17892;52.080;9.006;2023-12-04T01:01:38;0.30;99.90
31263;DHT22;17892;52.080;9.006;2023-12-04T01:04:04;0.30;99.90
31263;DHT22;17892;52.080;9.006;2023-12-04T01:06:29;0.30;99.90
31263;DHT22;17892;52.080;9.006;2023-12-04T01:08:55;0.30;99.90
31263;DHT22;17892;52.080;9.006;2023-12-04T01:11:21;0.30;99.90
31263;DHT22;17892;52.080;9.006;2023-12-04T01:13:48;0.30;99.90
31263;DHT22;17892;52.080;9.006;2023-12-04T01:16:14;0.30;99.90
31263;DHT22;17892;52.080;9.006;2023-12-04T01:18:41;0.30;99.90
31263;DHT22;17892;52.080;9.006;2023-12-04T01:21:07;0.30;99.90
31263;DHT22;17892;52.080;9.006;2023-12-04T01:23:36;0.30;99.90
31263;DHT22;17892;52.080;9.006;2023-12-04T01:26:05;0.30;99.90
31263;DHT22;17892;52.080;9.006;2023-12-04T01:28:31;0.30;99.90
31263;DHT22;17892;52.080;9.006;2023-12-04T01:30:57;0.30;99.90
31263;DHT22;17892;52.080;9.006;2023-12-04T01:33:23;0.30;99.90
31263;DHT22;17892;52.080;9.006;2023-12-04T01:35:48;0.20;99.90
31263;DHT22;17892;52.080;9.006;2023-12-04T01:38:14;0.30;99.90
31263;DHT22;17892;52.080;9.006;2023-12-04T01:40:40;0.30;99.90
31263;DHT22;17892;52.080;9.006;2023-12-04T01:43:05;0.30;99.90
31263;DHT22;17892;52.080;9.006;2023-12-04T01:45:31;0.30;99.90
31263;DHT22;17892;52.080;9.006;2023-12-04T01:47:58;0.30;99.90
31263;DHT22;17892;52.080;9.006;2023-12-04T01:50:24;0.30;99.90
31263;DHT22;17892;52.080;9.006;2023-12-04T01:52:52;0.30;99.90
31263;DHT22;17892;52.080;9.006;2023-12-04T01:55:18;0.30;99.90
31263;DHT22;17892;52.080;9.006;2023-12-04T01:57:45;0.30;99.90
31263;DHT22;17892;52.080;9.006;2023-12-04T02:00:11;0.30;99.90
31263;DHT22;17892;52.080;9.006;2023-12-04T02:02:41;0.30;99.90
31263;DHT22;17892;52.080;9.006;2023-12-04T02:05:11;0.30;99.90
31263;DHT22;17892;52.080;9.006;2023-12-04T02:07:37;0.30;99.90
31263;DHT22;17892;52.080;9.006;2023-12-04T02:10:03;0.30;99.90
31263;DHT22;17892;52.080;9.006;2023-12-04T02:12:30;0.30;99.90
31263;DHT22;17892;52.080;9.006;2023-12-04T02:14:56;0.30;99.90
31263;DHT22;17892;52.080;9.006;2023-12-04T02:17:22;0.20;99.90
31263;DHT22;17892;52.080;9.006;2023-12-04T02:19:48;0.20;99.90
31263;DHT22;17892;52.080;9.006;2023-12-04T02:22:14;0.30;99.90
31263;DHT22;17892;52.080;9.006;2023-12-04T02:24:40;0.20;99.90
31263;DHT22;17892;52.080;9.006;2023-12-04T02:30:01;0.30;99.90
31263;DHT22;17892;52.080;9.006;2023-12-04T02:32:33;0.30;99.90
31263;DHT22;17892;52.080;9.006;2023-12-04T02:35:04;0.30;99.90
31263;DHT22;17892;52.080;9.006;2023-12-04T02:37:30;0.30;99.90
31263;DHT22;17892;52.080;9.006;2023-12-04T02:39:58;0.30;99.90
31263;DHT22;17892;52.080;9.006;2023-12-04T02:42:24;0.30;99.90
31263;DHT22;17892;52.080;9.006;2023-12-04T02:44:50;0.30;99.90
31263;DHT22;17892;52.080;9.006;2023-12-04T02:47:17;0.30;99.90
31263;DHT22;17892;52.080;9.006;2023-12-04T02:49:43;0.20;99.90
31263;DHT22;17892;52.080;9.006;2023-12-04T02:52:08;0.20;99.90
31263;DHT22;17892;52.080;9.006;2023-12-04T02:54:34;0.20;99.90
31263;DHT22;17892;52.080;9.006;2023-12-04T02:57:00;0.20;99.90
31263;DHT22;17892;52.080;9.006;2023-12-04T02:59:26;0.20;99.90
31263;DHT22;17892;52.080;9.006;2023-12-04T03:01:51;0.20;99.90
31263;DHT22;17892;52.080;9.006;2023-12-04T03:04:18;0.20;99.90
31263;DHT22;17892;52.080;9.006;2023-12-04T03:06:44;0.20;99.90
31263;DHT22;17892;52.080;9.006;2023-12-04T03:09:10;0.20;99.90
31263;DHT22;17892;52.080;9.006;2023-12-04T03:11:39;0.20;99.90
31263;DHT22;17892;52.080;9.006;2023-12-04T03:14:06;0.30;99.90
31263;DHT22;17892;52.080;9.006;2023-12-04T03:16:32;0.30;99.90
31263;DHT22;17892;52.080;9.006;2023-12-04T03:18:57;0.30;99.90
31263;DHT22;17892;52.080;9.006;2023-12-04T03:21:23;0.30;99.90
31263;DHT22;17892;52.080;9.006;2023-12-04T03:23:49;0.30;99.90
31263;DHT22;17892;52.080;9.006;2023-12-04T03:26:15;0.30;99.90
31263;DHT22;17892;52.080;9.006;2023-12-04T03:28:40;0.30;99.90
31263;DHT22;17892;52.080;9.006;2023-12-04T03:31:06;0.30;99.90
31263;DHT22;17892;52.080;9.006;2023-12-04T03:33:33;0.30;99.90
31263;DHT22;17892;52.080;9.006;2023-12-04T03:36:02;0.30;99.90
31263;DHT22;17892;52.080;9.006;2023-12-04T03:38:28;0.30;99.90
31263;DHT22;17892;52.080;9.006;2023-12-04T03:40:53;0.40;99.90
31263;DHT22;17892;52.080;9.006;2023-12-04T03:43:19;0.30;99.90
31263;DHT22;17892;52.080;9.006;2023-12-04T03:45:45;0.30;99.90
31263;DHT22;17892;52.080;9.006;2023-12-04T03:48:10;0.30;99.90
31263;DHT22;17892;52.080;9.006;2023-12-04T03:50:36;0.40;99.90
31263;DHT22;17892;52.080;9.006;2023-12-04T03:53:02;0.40;99.90
31263;DHT22;17892;52.080;9.006;2023-12-04T03:55:27;0.40;99.90
31263;DHT22;17892;52.080;9.006;2023-12-04T03:57:54;0.40;99.90
31263;DHT22;17892;52.080;9.006;2023-12-04T04:00:20;0.40;99.90
31263;DHT22;17892;52.080;9.006;2023-12-04T04:02:46;0.40;99.90
31263;DHT22;17892;52.080;9.006;2023-12-04T04:05:12;0.40;99.90
31263;DHT22;17892;52.080;9.006;2023-12-04T04:07:37;0.40;99.90
31263;DHT22;17892;52.080;9.006;2023-12-04T04:10:03;0.40;99.90
31263;DHT22;17892;52.080;9.006;2023-12-04T04:12:30;0.40;99.90
31263;DHT22;17892;52.080;9.006;2023-12-04T04:14:56;0.40;99.90
31263;DHT22;17892;52.080;9.006;2023-12-04T04:17:22;0.50;99.90
31263;DHT22;17892;52.080;9.006;2023-12-04T04:19:54;0.50;99.90
31263;DHT22;17892;52.080;9.006;2023-12-04T04:22:20;0.50;99.90
31263;DHT22;17892;52.080;9.006;2023-12-04T04:24:47;0.50;99.90
31263;DHT22;17892;52.080;9.006;2023-12-04T04:27:13;0.60;99.90
31263;DHT22;17892;52.080;9.006;2023-12-04T04:29:39;0.60;99.90
31263;DHT22;17892;52.080;9.006;2023-12-04T04:32:05;0.60;99.90
31263;DHT22;17892;52.080;9.006;2023-12-04T04:34:31;0.60;99.90
31263;DHT22;17892;52.080;9.006;2023-12-04T04:36:57;0.70;99.90
31263;DHT22;17892;52.080;9.006;2023-12-04T04:39:22;0.70;99.90
31263;DHT22;17892;52.080;9.006;2023-12-04T04:41:48;0.80;99.90
31263;DHT22;17892;52.080;9.006;2023-12-04T04:44:14;0.80;99.90
31263;DHT22;17892;52.080;9.006;2023-12-04T04:46:40;0.80;99.90
31263;DHT22;17892;52.080;9.006;2023-12-04T04:49:05;0.80;99.90
31263;DHT22;17892;52.080;9.006;2023-12-04T04:51:32;0.80;99.90
31263;DHT22;17892;52.080;9.006;2023-12-04T04:54:00;0.80;99.90
31263;DHT22;17892;52.080;9.006;2023-12-04T04:56:26;0.90;99.90
31263;DHT22;17892;52.080;9.006;2023-12-04T04:58:52;0.90;99.90
31263;DHT22;17892;52.080;9.006;2023-12-04T05:01:17;0.90;99.90
31263;DHT22;17892;52.080;9.006;2023-12-04T05:03:43;0.90;99.90
31263;DHT22;17892;52.080;9.006;2023-12-04T05:06:09;0.90;99.90
31263;DHT22;17892;52.080;9.006;2023-12-04T05:08:35;0.90;99.90
31263;DHT22;17892;52.080;9.006;2023-12-04T05:11:00;0.90;99.90
31263;DHT22;17892;52.080;9.006;2023-12-04T05:13:26;0.90;99.90
31263;DHT22;17892;52.080;9.006;2023-12-04T05:15:52;0.90;99.90
31263;DHT22;17892;52.080;9.006;2023-12-04T05:18:17;0.90;99.90
31263;DHT22;17892;52.080;9.006;2023-12-04T05:20:43;1.00;99.90
31263;DHT22;17892;52.080;9.006;2023-12-04T05:23:09;1.00;99.90
31263;DHT22;17892;52.080;9.006;2023-12-04T05:25:34;0.90;99.90
31263;DHT22;17892;52.080;9.006;2023-12-04T05:28:00;1.00;99.90
31263;DHT22;17892;52.080;9.006;2023-12-04T05:30:26;0.90;99.90
31263;DHT22;17892;52.080;9.006;2023-12-04T05:32:52;1.00;99.90
31263;DHT22;17892;52.080;9.006;2023-12-04T05:35:17;0.90;99.90
31263;DHT22;17892;52.080;9.006;2023-12-04T05:37:43;0.90;99.90
31263;DHT22;17892;52.080;9.006;2023-12-04T05:40:10;0.90;99.90
31263;DHT22;17892;52.080;9.006;2023-12-04T05:42:37;0.90;99.50
31263;DHT22;17892;52.080;9.006;2023-12-04T05:45:03;0.90;99.90
31263;DHT22;17892;52.080;9.006;2023-12-04T05:47:29;0.90;99.90
31263;DHT22;17892;52.080;9.006;2023-12-04T05:49:54;0.90;99.90
31263;DHT22;17892;52.080;9.006;2023-12-04T05:52:20;0.90;99.90
31263;DHT22;17892;52.080;9.006;2023-12-04T05:54:46;0.90;99.90
31263;DHT22;17892;52.080;9.006;2023-12-04T05:57:11;0.90;99.90
31263;DHT22;17892;52.080;9.006;2023-12-04T05:59:37;0.90;99.90
31263;DHT22;17892;52.080;9.006;2023-12-04T06:02:03;0.90;99.90
31263;DHT22;17892;52.080;9.006;2023-12-04T06:04:29;1.00;99.90
31263;DHT22;17892;52.080;9.006;2023-12-04T06:06:55;1.00;99.90
31263;DHT22;17892;52.080;9.006;2023-12-04T06:09:20;0.90;99.90
31263;DHT22;17892;52.080;9.006;2023-12-04T06:11:46;1.00;99.90
31263;DHT22;17892;52.080;9.006;2023-12-04T06:14:11;1.00;99.90
31263;DHT22;17892;52.080;9.006;2023-12-04T06:16:37;0.90;99.90
31263;DHT22;17892;52.080;9.006;2023-12-04T06:19:03;0.90;99.90
31263;DHT22;17892;52.080;9.006;2023-12-04T06:21:31;1.00;99.90
31263;DHT22;17892;52.080;9.006;2023-12-04T06:23:58;0.90;99.90
31263;DHT22;17892;52.080;9.006;2023-12-04T06:26:24;0.90;99.90
31263;DHT22;17892;52.080;9.006;2023-12-04T06:28:50;0.90;99.90
31263;DHT22;17892;52.080;9.006;2023-12-04T06:31:16;0.90;99.90
31263;DHT22;17892;52.080;9.006;2023-12-04T06:33:42;0.90;99.90
31263;DHT22;17892;52.080;9.006;2023-12-04T06:36:09;0.90;99.90
31263;DHT22;17892;52.080;9.006;2023-12-04T06:38:40;0.90;99.50
31263;DHT22;17892;52.080;9.006;2023-12-04T06:41:07;0.90;99.90
31263;DHT22;17892;52.080;9.006;2023-12-04T06:43:34;0.90;99.90
31263;DHT22;17892;52.080;9.006;2023-12-04T06:46:00;0.90;99.90
31263;DHT22;17892;52.080;9.006;2023-12-04T06:48:26;0.90;99.40
31263;DHT22;17892;52.080;9.006;2023-12-04T06:50:52;0.90;99.10
31263;DHT22;17892;52.080;9.006;2023-12-04T06:53:18;0.90;99.90
31263;DHT22;17892;52.080;9.006;2023-12-04T06:55:44;0.80;99.30
31263;DHT22;17892;52.080;9.006;2023-12-04T06:58:10;0.90;98.90
31263;DHT22;17892;52.080;9.006;2023-12-04T07:00:35;0.90;99.90
31263;DHT22;17892;52.080;9.006;2023-12-04T07:03:01;0.90;99.60
31263;DHT22;17892;52.080;9.006;2023-12-04T07:05:27;0.90;99.20
31263;DHT22;17892;52.080;9.006;2023-12-04T07:07:52;0.90;99.10
31263;DHT22;17892;52.080;9.006;2023-12-04T07:10:18;0.90;99.90
31263;DHT22;17892;52.080;9.006;2023-12-04T07:12:44;0.90;99.60
31263;DHT22;17892;52.080;9.006;2023-12-04T07:15:11;0.90;99.90
31263;DHT22;17892;52.080;9.006;2023-12-04T07:17:37;0.90;99.90
31263;DHT22;17892;52.080;9.006;2023-12-04T07:20:03;1.00;98.60
31263;DHT22;17892;52.080;9.006;2023-12-04T07:22:33;1.00;99.30
31263;DHT22;17892;52.080;9.006;2023-12-04T07:24:59;1.00;99.00
31263;DHT22;17892;52.080;9.006;2023-12-04T07:27:24;1.00;98.40
31263;DHT22;17892;52.080;9.006;2023-12-04T07:29:50;1.00;99.90
31263;DHT22;17892;52.080;9.006;2023-12-04T07:32:16;1.00;98.40
31263;DHT22;17892;52.080;9.006;2023-12-04T07:34:43;1.00;99.00
31263;DHT22;17892;52.080;9.006;2023-12-04T07:37:09;1.00;99.80
31263;DHT22;17892;52.080;9.006;2023-12-04T07:39:35;1.00;97.70
31263;DHT22;17892;52.080;9.006;2023-12-04T07:42:01;1.10;99.90
31263;DHT22;17892;52.080;9.006;2023-12-04T07:44:27;1.10;99.50
31263;DHT22;17892;52.080;9.006;2023-12-04T07:46:52;1.10;97.70
31263;DHT22;17892;52.080;9.006;2023-12-04T07:49:18;1.10;99.30
31263;DHT22;17892;52.080;9.006;2023-12-04T07:51:44;1.10;99.40
31263;DHT22;17892;52.080;9.006;2023-12-04T07:54:09;1.10;99.90
31263;DHT22;17892;52.080;9.006;2023-12-04T07:56:35;1.00;98.60
31263;DHT22;17892;52.080;9.006;2023-12-04T07:59:01;1.00;99.20
31263;DHT22;17892;52.080;9.006;2023-12-04T08:01:26;1.00;99.60
31263;DHT22;17892;52.080;9.006;2023-12-04T08:03:52;1.00;98.50
31263;DHT22;17892;52.080;9.006;2023-12-04T08:06:18;1.00;99.60
31263;DHT22;17892;52.080;9.006;2023-12-04T08:08:44;1.00;98.10
31263;DHT22;17892;52.080;9.006;2023-12-04T08:11:11;1.00;99.30
31263;DHT22;17892;52.080;9.006;2023-12-04T08:13:38;1.00;99.90
31263;DHT22;17892;52.080;9.006;2023-12-04T08:16:04;1.00;98.00
31263;DHT22;17892;52.080;9.006;2023-12-04T08:18:30;1.00;99.10
31263;DHT22;17892;52.080;9.006;2023-12-04T08:20:56;1.00;99.90
31263;DHT22;17892;52.080;9.006;2023-12-04T08:23:25;1.10;99.60
31263;DHT22;17892;52.080;9.006;2023-12-04T08:25:51;1.00;99.30
31263;DHT22;17892;52.080;9.006;2023-12-04T08:28:16;1.10;98.40
31263;DHT22;17892;52.080;9.006;2023-12-04T08:30:42;1.10;97.90
31263;DHT22;17892;52.080;9.006;2023-12-04T08:33:08;1.10;99.60
31263;DHT22;17892;52.080;9.006;2023-12-04T08:35:34;1.10;98.40
31263;DHT22;17892;52.080;9.006;2023-12-04T08:37:59;1.10;97.30
31263;DHT22;17892;52.080;9.006;2023-12-04T08:40:25;1.20;99.40
31263;DHT22;17892;52.080;9.006;2023-12-04T08:42:51;1.20;99.10
31263;DHT22;17892;52.080;9.006;2023-12-04T08:45:16;1.20;98.70
31263;DHT22;17892;52.080;9.006;2023-12-04T08:47:42;1.20;99.00
31263;DHT22;17892;52.080;9.006;2023-12-04T08:50:09;1.30;98.00
31263;DHT22;17892;52.080;9.006;2023-12-04T08:52:35;1.30;99.90
31263;DHT22;17892;52.080;9.006;2023-12-04T08:55:01;1.30;98.80
31263;DHT22;17892;52.080;9.006;2023-12-04T08:57:27;1.40;98.80
31263;DHT22;17892;52.080;9.006;2023-12-04T08:59:52;1.40;97.30
31263;DHT22;17892;52.080;9.006;2023-12-04T09:02:18;1.40;99.90
31263;DHT22;17892;52.080;9.006;2023-12-04T09:04:44;1.40;98.50
31263;DHT22;17892;52.080;9.006;2023-12-04T09:07:09;1.40;97.70
31263;DHT22;17892;52.080;9.006;2023-12-04T09:09:35;1.50;98.90
31263;DHT22;17892;52.080;9.006;2023-12-04T09:12:01;1.50;98.50
31263;DHT22;17892;52.080;9.006;2023-12-04T09:14:26;1.60;99.90
31263;DHT22;17892;52.080;9.006;2023-12-04T09:16:53;1.60;98.00
31263;DHT22;17892;52.080;9.006;2023-12-04T09:19:19;1.60;98.90
31263;DHT22;17892;52.080;9.006;2023-12-04T09:21:44;1.70;99.90
31263;DHT22;17892;52.080;9.006;2023-12-04T09:24:10;1.70;97.80
31263;DHT22;17892;52.080;9.006;2023-12-04T09:26:36;1.70;98.90
31263;DHT22;17892;52.080;9.006;2023-12-04T09:29:01;1.80;99.00
31263;DHT22;17892;52.080;9.006;2023-12-04T09:31:27;1.90;98.90
31263;DHT22;17892;52.080;9.006;2023-12-04T09:33:53;1.90;99.90
31263;DHT22;17892;52.080;9.006;2023-12-04T09:36:19;1.90;99.90
31263;DHT22;17892;52.080;9.006;2023-12-04T09:38:45;2.00;99.00
31263;DHT22;17892;52.080;9.006;2023-12-04T09:41:12;2.00;96.90
31263;DHT22;17892;52.080;9.006;2023-12-04T09:43:38;2.00;95.40
31263;DHT22;17892;52.080;9.006;2023-12-04T09:46:04;2.00;99.10
31263;DHT22;17892;52.080;9.006;2023-12-04T09:48:31;2.10;97.60
31263;DHT22;17892;52.080;9.006;2023-12-04T09:50:57;2.10;99.50
31263;DHT22;17892;52.080;9.006;2023-12-04T09:53:24;2.10;99.90
31263;DHT22;17892;52.080;9.006;2023-12-04T09:55:53;2.10;99.90
31263;DHT22;17892;52.080;9.006;2023-12-04T09:58:22;2.20;99.90
31263;DHT22;17892;52.080;9.006;2023-12-04T10:00:52;2.20;96.80
31263;DHT22;17892;52.080;9.006;2023-12-04T10:03:20;2.20;99.90
31263;DHT22;17892;52.080;9.006;2023-12-04T10:05:46;2.30;99.90
31263;DHT22;17892;52.080;9.006;2023-12-04T10:08:13;2.30;99.90
31263;DHT22;17892;52.080;9.006;2023-12-04T10:10:38;2.40;99.90
31263;DHT22;17892;52.080;9.006;2023-12-04T10:13:04;2.40;99.90
31263;DHT22;17892;52.080;9.006;2023-12-04T10:15:30;2.50;99.10
31263;DHT22;17892;52.080;9.006;2023-12-04T10:17:56;2.50;99.90
31263;DHT22;17892;52.080;9.006;2023-12-04T10:20:22;2.50;99.90
31263;DHT22;17892;52.080;9.006;2023-12-04T10:23:01;2.60;98.20
31263;DHT22;17892;52.080;9.006;2023-12-04T10:25:29;2.60;97.30
31263;DHT22;17892;52.080;9.006;2023-12-04T10:28:12;2.60;99.40
31263;DHT22;17892;52.080;9.006;2023-12-04T10:30:38;2.60;97.10
31263;DHT22;17892;52.080;9.006;2023-12-04T10:33:06;2.70;99.10
31263;DHT22;17892;52.080;9.006;2023-12-04T10:35:33;2.60;98.10
31263;DHT22;17892;52.080;9.006;2023-12-04T10:38:03;2.70;97.70
31263;DHT22;17892;52.080;9.006;2023-12-04T10:40:34;2.60;96.30
31263;DHT22;17892;52.080;9.006;2023-12-04T10:43:18;2.70;97.90
31263;DHT22;17892;52.080;9.006;2023-12-04T10:45:46;2.70;99.00
31263;DHT22;17892;52.080;9.006;2023-12-04T10:48:13;2.50;99.90
31263;DHT22;17892;52.080;9.006;2023-12-04T10:50:45;2.70;98.90
31263;DHT22;17892;52.080;9.006;2023-12-04T10:53:13;2.70;99.40
31263;DHT22;17892;52.080;9.006;2023-12-04T10:55:41;2.60;98.70
31263;DHT22;17892;52.080;9.006;2023-12-04T10:58:09;2.60;99.70
31263;DHT22;17892;52.080;9.006;2023-12-04T11:00:44;2.70;98.20
31263;DHT22;17892;52.080;9.006;2023-12-04T11:05:55;2.70;97.40
31263;DHT22;17892;52.080;9.006;2023-12-04T11:08:23;2.80;99.70
31263;DHT22;17892;52.080;9.006;2023-12-04T11:11:12;2.70;99.90
31263;DHT22;17892;52.080;9.006;2023-12-04T11:13:43;2.90;98.60
31263;DHT22;17892;52.080;9.006;2023-12-04T11:18:44;2.90;99.90
31263;DHT22;17892;52.080;9.006;2023-12-04T11:21:13;2.90;99.60
31263;DHT22;17892;52.080;9.006;2023-12-04T11:23:41;3.00;99.90
31263;DHT22;17892;52.080;9.006;2023-12-04T11:26:09;3.00;99.50
31263;DHT22;17892;52.080;9.006;2023-12-04T11:28:36;3.00;99.90
31263;DHT22;17892;52.080;9.006;2023-12-04T11:31:04;3.00;97.20
31263;DHT22;17892;52.080;9.006;2023-12-04T11:33:37;3.00;99.00
31263;DHT22;17892;52.080;9.006;2023-12-04T11:36:11;2.90;97.10
31263;DHT22;17892;52.080;9.006;2023-12-04T11:38:40;2.90;97.40
31263;DHT22;17892;52.080;9.006;2023-12-04T11:41:24;2.90;98.00
31263;DHT22;17892;52.080;9.006;2023-12-04T11:43:52;2.90;96.50
31263;DHT22;17892;52.080;9.006;2023-12-04T11:46:23;2.80;95.40
31263;DHT22;17892;52.080;9.006;2023-12-04T11:48:50;2.90;97.10
31263;DHT22;17892;52.080;9.006;2023-12-04T11:54:07;2.90;94.50
31263;DHT22;17892;52.080;9.006;2023-12-04T11:56:34;3.00;97.80
31263;DHT22;17892;52.080;9.006;2023-12-04T11:59:04;3.00;98.70
31263;DHT22;17892;52.080;9.006;2023-12-04T12:01:35;3.00;96.90
31263;DHT22;17892;52.080;9.006;2023-12-04T12:04:02;3.00;97.70
31263;DHT22;17892;52.080;9.006;2023-12-04T12:06:30;3.10;98.60
31263;DHT22;17892;52.080;9.006;2023-12-04T12:08:56;3.10;98.20
31263;DHT22;17892;52.080;9.006;2023-12-04T12:11:23;3.10;99.30
31263;DHT22;17892;52.080;9.006;2023-12-04T12:13:49;3.10;97.50
31263;DHT22;17892;52.080;9.006;2023-12-04T12:16:17;3.10;96.80
31263;DHT22;17892;52.080;9.006;2023-12-04T12:18:43;3.20;95.80
31263;DHT22;17892;52.080;9.006;2023-12-04T12:21:09;3.20;96.10
31263;DHT22;17892;52.080;9.006;2023-12-04T12:23:35;3.20;98.80
31263;DHT22;17892;52.080;9.006;2023-12-04T12:26:01;3.20;99.40
31263;DHT22;17892;52.080;9.006;2023-12-04T12:28:28;3.20;96.40
31263;DHT22;17892;52.080;9.006;2023-12-04T12:30:55;3.30;98.00
31263;DHT22;17892;52.080;9.006;2023-12-04T12:33:21;3.40;96.70
31263;DHT22;17892;52.080;9.006;2023-12-04T12:35:48;3.30;99.20
31263;DHT22;17892;52.080;9.006;2023-12-04T12:38:15;3.30;99.50
31263;DHT22;17892;52.080;9.006;2023-12-04T12:40:41;3.40;99.40
31263;DHT22;17892;52.080;9.006;2023-12-04T12:43:07;3.30;97.30
31263;DHT22;17892;52.080;9.006;2023-12-04T12:45:44;3.30;99.40
31263;DHT22;17892;52.080;9.006;2023-12-04T12:48:10;3.30;97.50
31263;DHT22;17892;52.080;9.006;2023-12-04T12:50:37;3.30;93.50
31263;DHT22;17892;52.080;9.006;2023-12-04T12:53:02;3.30;99.10
31263;DHT22;17892;52.080;9.006;2023-12-04T12:55:28;3.30;99.90
31263;DHT22;17892;52.080;9.006;2023-12-04T12:57:56;3.30;99.90
31263;DHT22;17892;52.080;9.006;2023-12-04T13:00:23;3.30;97.40
31263;DHT22;17892;52.080;9.006;2023-12-04T13:02:52;3.30;96.50
31263;DHT22;17892;52.080;9.006;2023-12-04T13:05:18;3.30;97.40
31263;DHT22;17892;52.080;9.006;2023-12-04T13:07:45;3.20;97.00
31263;DHT22;17892;52.080;9.006;2023-12-04T13:10:11;3.20;98.20
31263;DHT22;17892;52.080;9.006;2023-12-04T13:12:37;3.20;97.90
31263;DHT22;17892;52.080;9.006;2023-12-04T13:15:03;3.20;99.20
31263;DHT22;17892;52.080;9.006;2023-12-04T13:17:29;3.20;99.70
31263;DHT22;17892;52.080;9.006;2023-12-04T13:19:54;3.30;97.30
31263;DHT22;17892;52.080;9.006;2023-12-04T13:22:20;3.30;98.80
31263;DHT22;17892;52.080;9.006;2023-12-04T13:24:46;3.30;99.90
31263;DHT22;17892;52.080;9.006;2023-12-04T13:27:12;3.30;99.90
31263;DHT22;17892;52.080;9.006;2023-12-04T13:29:39;3.30;97.50
31263;DHT22;17892;52.080;9.006;2023-12-04T13:32:06;3.30;99.20
31263;DHT22;17892;52.080;9.006;2023-12-04T13:34:33;3.30;98.60
31263;DHT22;17892;52.080;9.006;2023-12-04T13:36:58;3.30;97.50
31263;DHT22;17892;52.080;9.006;2023-12-04T13:39:24;3.30;97.70
31263;DHT22;17892;52.080;9.006;2023-12-04T13:42:04;3.30;99.20
31263;DHT22;17892;52.080;9.006;2023-12-04T13:44:48;3.30;97.60
31263;DHT22;17892;52.080;9.006;2023-12-04T13:47:16;3.30;99.60
31263;DHT22;17892;52.080;9.006;2023-12-04T13:49:43;3.40;99.90
31263;DHT22;17892;52.080;9.006;2023-12-04T13:52:12;3.40;99.40
31263;DHT22;17892;52.080;9.006;2023-12-04T13:54:37;3.40;99.50
31263;DHT22;17892;52.080;9.006;2023-12-04T13:57:12;3.40;98.70
31263;DHT22;17892;52.080;9.006;2023-12-04T13:59:53;3.40;98.80
31263;DHT22;17892;52.080;9.006;2023-12-04T14:02:21;3.40;95.70
31263;DHT22;17892;52.080;9.006;2023-12-04T14:04:47;3.40;96.10
31263;DHT22;17892;52.080;9.006;2023-12-04T14:07:14;3.30;99.30
31263;DHT22;17892;52.080;9.006;2023-12-04T14:09:39;3.30;98.50
31263;DHT22;17892;52.080;9.006;2023-12-04T14:12:06;3.30;99.50
31263;DHT22;17892;52.080;9.006;2023-12-04T14:14:32;3.30;99.90
31263;DHT22;17892;52.080;9.006;2023-12-04T14:16:59;3.30;99.90
31263;DHT22;17892;52.080;9.006;2023-12-04T14:19:25;3.30;99.90
31263;DHT22;17892;52.080;9.006;2023-12-04T14:21:50;3.30;99.90
31263;DHT22;17892;52.080;9.006;2023-12-04T14:24:16;3.40;99.70
31263;DHT22;17892;52.080;9.006;2023-12-04T14:26:43;3.30;99.50
31263;DHT22;17892;52.080;9.006;2023-12-04T14:29:09;3.30;99.90
31263;DHT22;17892;52.080;9.006;2023-12-04T14:31:34;3.30;99.90
31263;DHT22;17892;52.080;9.006;2023-12-04T14:34:00;3.40;99.90
31263;DHT22;17892;52.080;9.006;2023-12-04T14:36:26;3.30;99.90
31263;DHT22;17892;52.080;9.006;2023-12-04T14:39:00;3.30;99.90
31263;DHT22;17892;52.080;9.006;2023-12-04T14:41:26;3.30;99.90
31263;DHT22;17892;52.080;9.006;2023-12-04T14:43:51;3.30;99.90
31263;DHT22;17892;52.080;9.006;2023-12-04T14:46:17;3.20;98.30
31263;DHT22;17892;52.080;9.006;2023-12-04T14:48:43;3.20;99.90
31263;DHT22;17892;52.080;9.006;2023-12-04T14:51:09;3.10;99.90
31263;DHT22;17892;52.080;9.006;2023-12-04T14:53:37;3.10;99.90
31263;DHT22;17892;52.080;9.006;2023-12-04T14:56:12;3.10;99.90
31263;DHT22;17892;52.080;9.006;2023-12-04T14:58:53;3.10;99.90
31263;DHT22;17892;52.080;9.006;2023-12-04T15:01:31;3.10;99.90
31263;DHT22;17892;52.080;9.006;2023-12-04T15:04:23;3.10;99.90
31263;DHT22;17892;52.080;9.006;2023-12-04T15:06:54;3.00;99.90
31263;DHT22;17892;52.080;9.006;2023-12-04T15:09:25;3.00;99.90
31263;DHT22;17892;52.080;9.006;2023-12-04T15:12:10;3.00;99.90
31263;DHT22;17892;52.080;9.006;2023-12-04T15:14:56;3.00;99.90
31263;DHT22;17892;52.080;9.006;2023-12-04T15:17:23;3.00;99.90
31263;DHT22;17892;52.080;9.006;2023-12-04T15:19:58;2.90;99.90
31263;DHT22;17892;52.080;9.006;2023-12-04T15:22:36;2.90;99.90
31263;DHT22;17892;52.080;9.006;2023-12-04T15:25:03;2.90;99.90
31263;DHT22;17892;52.080;9.006;2023-12-04T15:27:32;2.90;99.90
31263;DHT22;17892;52.080;9.006;2023-12-04T15:29:57;2.90;98.40
31263;DHT22;17892;52.080;9.006;2023-12-04T15:32:23;3.00;99.90
31263;DHT22;17892;52.080;9.006;2023-12-04T15:34:49;2.90;99.90
31263;DHT22;17892;52.080;9.006;2023-12-04T15:37:14;2.90;99.90
31263;DHT22;17892;52.080;9.006;2023-12-04T15:39:40;2.90;99.90
31263;DHT22;17892;52.080;9.006;2023-12-04T15:42:06;3.00;99.90
31263;DHT22;17892;52.080;9.006;2023-12-04T15:44:32;3.00;99.90
31263;DHT22;17892;52.080;9.006;2023-12-04T15:46:58;3.00;99.90
31263;DHT22;17892;52.080;9.006;2023-12-04T15:49:24;3.00;99.90
31263;DHT22;17892;52.080;9.006;2023-12-04T15:51:50;3.00;98.90
31263;DHT22;17892;52.080;9.006;2023-12-04T15:54:15;3.00;99.90